< < Back
Terminal Aerodrome Forecast


Current Version              Previous Versions:   1  2  3  4  5  6  7  8  9  

Terminal Aerodrome Forecast

841
FTUS42 KMLB 240523
TAFMCO
TAF
KMCO 240523Z 2406/2506 07005KT P6SM FEW030
     FM241400 10012KT P6SM FEW040
     FM241800 09014G22KT P6SM SCT040 BKN060
     FM250000 09012KT P6SM FEW030 SCT250=

Latest METAR

063
SAUS70 KWBC 240700 RRF
MTRMCO
METAR KMCO 240653Z 06005KT 10SM FEW030 24/22 A3019 RMK AO2 SLP223
T02440222


USA.gov is the U.S. government's official web portal to all federal, state and local government web resources and services.